createdAt,value
2022-12-23T00:00:39.327Z,98882.03
2022-12-23T00:03:06.364Z,98886.25
2022-12-23T00:05:38.511Z,98887.28
2022-12-23T00:08:06.623Z,98892.47
2022-12-23T00:10:37.777Z,98889.44
2022-12-23T00:13:23.146Z,98885.66
2022-12-23T00:15:49.634Z,98884.88
2022-12-23T00:18:16.200Z,98872.16
2022-12-23T00:20:42.782Z,98886.72
2022-12-23T00:23:09.287Z,98873.66
2022-12-23T00:25:41.192Z,98864.91
2022-12-23T00:28:14.709Z,98868.19
2022-12-23T00:31:04.904Z,98874.88
2022-12-23T00:33:40.075Z,98874.72
2022-12-23T00:36:27.739Z,98867.56
2022-12-23T00:39:14.249Z,98868.81
2022-12-23T00:41:59.446Z,98855.34
2022-12-23T00:44:26.477Z,98854.63
2022-12-23T00:46:53.493Z,98853.69
2022-12-23T00:49:39.633Z,98858.66
2022-12-23T00:52:08.526Z,98859.38
2022-12-23T00:54:35.239Z,98860.72
2022-12-23T00:57:02.467Z,98860.41
2022-12-23T00:59:29.049Z,98848.03
2022-12-23T01:02:14.706Z,98845.63
2022-12-23T01:04:59.982Z,98844.91
2022-12-23T01:07:26.477Z,98838.88
2022-12-23T01:09:52.994Z,98838.75
2022-12-23T01:12:19.703Z,98835.66
2022-12-23T01:14:46.311Z,98849.78
2022-12-23T01:17:13.140Z,98839.50
2022-12-23T01:19:40.243Z,98848.16
2022-12-23T01:22:06.827Z,98840.69
2022-12-23T01:24:33.868Z,98843.38
2022-12-23T01:27:00.954Z,98843.09
2022-12-23T01:29:28.861Z,98830.94
2022-12-23T01:31:55.713Z,98840.19
2022-12-23T01:34:22.597Z,98822.63
2022-12-23T01:36:49.159Z,98820.53
2022-12-23T01:39:15.782Z,98827.03
2022-12-23T01:42:00.788Z,98828.75
2022-12-23T01:44:45.783Z,98835.25
2022-12-23T01:47:16.863Z,98827.03
2022-12-23T01:49:43.781Z,98831.94
2022-12-23T01:52:11.907Z,98821.03
2022-12-23T01:54:39.279Z,98827.53
2022-12-23T01:57:05.993Z,98829.19
2022-12-23T01:59:51.522Z,98822.13
2022-12-23T02:02:36.821Z,98811.81
2022-12-23T02:05:03.587Z,98808.16
2022-12-23T02:07:50.187Z,98807.19
2022-12-23T02:10:16.999Z,98804.97
2022-12-23T02:12:57.985Z,98805.91
2022-12-23T02:16:06.184Z,98799.53
2022-12-23T02:18:46.817Z,98795.34
2022-12-23T02:21:19.414Z,98794.94
2022-12-23T02:23:56.873Z,98806.81
2022-12-23T02:27:06.129Z,98806.16
2022-12-23T02:29:56.682Z,98819.50
2022-12-23T02:32:32.245Z,98827.47
2022-12-23T02:35:10.922Z,98812.97
2022-12-23T02:37:43.856Z,98815.56
2022-12-23T02:40:20.623Z,98817.50
2022-12-23T02:43:04.714Z,98814.81
2022-12-23T02:45:43.755Z,98810.25
2022-12-23T02:48:34.380Z,98804.97
2022-12-23T02:51:03.964Z,98801.25
2022-12-23T02:53:45.799Z,98802.88
2022-12-23T02:56:14.973Z,98795.41
2022-12-23T02:58:47.769Z,98792.47
2022-12-23T03:01:16.493Z,98780.97
2022-12-23T03:03:45.792Z,98782.09
2022-12-23T03:06:21.720Z,98775.59
2022-12-23T03:08:51.053Z,98782.38
2022-12-23T03:11:18.475Z,98790.63
2022-12-23T03:14:32.957Z,98777.22
2022-12-23T03:17:20.753Z,98773.03
2022-12-23T03:19:57.828Z,98779.63
2022-12-23T03:22:38.483Z,98780.94
2022-12-23T03:25:25.459Z,98778.72
2022-12-23T03:28:25.540Z,98772.03
2022-12-23T03:30:57.403Z,98762.09
2022-12-23T03:33:31.714Z,98763.47
2022-12-23T03:36:09.811Z,98754.28
2022-12-23T03:38:41.393Z,98734.22
2022-12-23T03:41:17.388Z,98723.63
2022-12-23T03:43:51.266Z,98716.66
2022-12-23T03:46:29.528Z,98711.13
2022-12-23T03:49:04.360Z,98722.63
2022-12-23T03:51:44.313Z,98727.97
2022-12-23T03:54:17.060Z,98738.25
2022-12-23T03:56:51.530Z,98737.50
2022-12-23T03:59:22.313Z,98750.50
2022-12-23T04:02:23.656Z,98755.53
2022-12-23T04:05:19.712Z,98747.88
2022-12-23T04:08:11.241Z,98750.66
2022-12-23T04:10:38.042Z,98755.69
2022-12-23T04:13:04.847Z,98763.78
2022-12-23T04:15:31.904Z,98770.53
2022-12-23T04:17:58.813Z,98762.06
2022-12-23T04:20:25.915Z,98761.56
2022-12-23T04:22:52.495Z,98760.38
2022-12-23T04:25:19.280Z,98757.38
2022-12-23T04:27:45.917Z,98758.75
2022-12-23T04:30:16.306Z,98757.97
2022-12-23T04:32:42.868Z,98762.28
2022-12-23T04:35:10.513Z,98750.69
2022-12-23T04:37:37.834Z,98761.91
2022-12-23T04:40:05.653Z,98750.31
2022-12-23T04:42:32.268Z,98761.00
2022-12-23T04:44:59.044Z,98769.81
2022-12-23T04:47:25.773Z,98748.59
2022-12-23T04:49:52.274Z,98776.00
2022-12-23T04:52:18.923Z,98754.63
2022-12-23T04:54:46.534Z,98742.53
2022-12-23T04:57:13.898Z,98775.78
2022-12-23T04:59:40.435Z,98757.84
2022-12-23T05:02:08.099Z,98730.41
2022-12-23T05:04:35.091Z,98740.63
2022-12-23T05:07:01.769Z,98728.75
2022-12-23T05:09:28.500Z,98698.75
2022-12-23T05:11:55.408Z,98705.44
2022-12-23T05:14:21.920Z,98702.63
2022-12-23T05:16:48.501Z,98707.41
2022-12-23T05:19:15.263Z,98760.63
2022-12-23T05:21:41.795Z,98743.81
2022-12-23T05:24:08.442Z,98727.53
2022-12-23T05:26:35.011Z,98725.66
2022-12-23T05:29:01.544Z,98747.69
2022-12-23T05:31:28.180Z,98810.13
2022-12-23T05:33:54.789Z,98759.97
2022-12-23T05:36:21.862Z,98752.44
2022-12-23T05:38:48.505Z,98726.13
2022-12-23T05:41:16.862Z,98720.59
2022-12-23T05:43:43.409Z,98795.78
2022-12-23T05:46:10.003Z,98766.00
2022-12-23T05:48:36.579Z,98776.25
2022-12-23T05:51:03.176Z,98764.59
2022-12-23T05:53:29.770Z,98785.16
2022-12-23T05:55:56.355Z,98766.66
2022-12-23T05:58:22.906Z,98754.69
2022-12-23T06:00:49.465Z,98737.88
2022-12-23T06:03:16.127Z,98714.28
2022-12-23T06:05:43.887Z,98703.13
2022-12-23T06:08:10.479Z,98704.75
2022-12-23T06:10:37.157Z,98691.47
2022-12-23T06:13:03.714Z,98689.59
2022-12-23T06:15:30.275Z,98680.81
2022-12-23T06:17:56.851Z,98674.09
2022-12-23T06:20:23.378Z,98698.34
2022-12-23T06:22:49.972Z,98703.88
2022-12-23T06:25:16.676Z,98712.66
2022-12-23T06:27:43.237Z,98721.09
2022-12-23T06:30:10.435Z,98745.34
2022-12-23T06:32:38.832Z,98737.16
2022-12-23T06:35:07.343Z,98746.66
2022-12-23T06:37:34.269Z,98759.09
2022-12-23T06:40:00.856Z,98761.63
2022-12-23T06:42:27.390Z,98757.16
2022-12-23T06:44:53.919Z,98764.97
2022-12-23T06:47:20.629Z,98735.09
2022-12-23T06:49:47.210Z,98737.41
2022-12-23T06:52:13.742Z,98737.13
2022-12-23T06:54:40.251Z,98745.75
2022-12-23T06:57:06.804Z,98740.16
2022-12-23T06:59:33.323Z,98753.91
2022-12-23T07:01:59.952Z,98751.50
2022-12-23T07:04:26.651Z,98758.03
2022-12-23T07:06:53.167Z,98765.38
2022-12-23T07:09:19.729Z,98778.16
2022-12-23T07:11:46.342Z,98765.91
2022-12-23T07:14:12.838Z,98767.22
2022-12-23T07:16:39.449Z,98772.19
2022-12-23T07:19:06.103Z,98754.28
2022-12-23T07:21:32.717Z,98756.72
2022-12-23T07:23:59.320Z,98756.88
2022-12-23T07:26:25.878Z,98756.75
2022-12-23T07:28:52.480Z,98762.31
2022-12-23T07:31:19.009Z,98758.75
2022-12-23T07:33:45.748Z,98757.34
2022-12-23T07:36:12.259Z,98759.38
2022-12-23T07:38:38.798Z,98755.53
2022-12-23T07:41:05.522Z,98749.03
2022-12-23T07:43:32.043Z,98753.19
2022-12-23T07:46:00.694Z,98760.84
2022-12-23T07:48:27.992Z,98759.72
2022-12-23T07:51:00.799Z,98738.34
2022-12-23T07:53:27.667Z,98755.22
2022-12-23T07:55:56.608Z,98749.97
2022-12-23T07:58:23.839Z,98752.50
2022-12-23T08:00:50.609Z,98733.13
2022-12-23T08:03:17.375Z,98744.50
2022-12-23T08:05:44.027Z,98752.75
2022-12-23T08:08:10.602Z,98749.81
2022-12-23T08:10:41.417Z,98758.91
2022-12-23T08:13:11.097Z,98764.63
2022-12-23T08:15:37.661Z,98765.09
2022-12-23T08:18:04.310Z,98765.84
2022-12-23T08:20:30.816Z,98772.50
2022-12-23T08:22:57.321Z,98769.78
2022-12-23T08:25:23.855Z,98765.63
2022-12-23T08:27:51.320Z,98770.50
2022-12-23T08:30:18.983Z,98761.81
2022-12-23T08:32:45.535Z,98785.72
2022-12-23T08:35:12.088Z,98781.94
2022-12-23T08:37:38.685Z,98794.72
2022-12-23T08:40:05.756Z,98784.28
2022-12-23T08:42:32.315Z,98782.13
2022-12-23T08:44:58.930Z,98781.03
2022-12-23T08:47:25.432Z,98784.44
2022-12-23T08:49:52.018Z,98790.22
2022-12-23T08:52:18.565Z,98779.03
2022-12-23T08:54:45.124Z,98796.31
2022-12-23T08:57:11.659Z,98803.38
2022-12-23T08:59:38.804Z,98792.47
2022-12-23T09:02:05.494Z,98795.03
2022-12-23T09:04:32.190Z,98807.56
2022-12-23T09:06:58.796Z,98783.66
2022-12-23T09:09:25.312Z,98777.03
2022-12-23T09:11:51.821Z,98786.97
2022-12-23T09:14:18.344Z,98782.50
2022-12-23T09:16:44.975Z,98769.31
2022-12-23T09:19:11.569Z,98786.91
2022-12-23T09:21:38.066Z,98770.41
2022-12-23T09:24:04.980Z,98766.03
2022-12-23T09:26:31.776Z,98780.22
2022-12-23T09:28:58.769Z,98770.72
2022-12-23T09:31:30.444Z,98764.50
2022-12-23T09:34:00.816Z,98771.44
2022-12-23T09:36:27.396Z,98775.31
2022-12-23T09:38:56.258Z,98773.66
2022-12-23T09:41:38.435Z,98761.44
2022-12-23T09:44:33.675Z,98777.28
2022-12-23T09:47:04.696Z,98760.81
2022-12-23T09:49:32.627Z,98757.31
2022-12-23T09:52:03.806Z,98780.38
2022-12-23T09:54:38.168Z,98760.88
2022-12-23T09:57:23.134Z,98755.56
2022-12-23T10:00:01.546Z,98744.00
2022-12-23T10:02:31.282Z,98745.56
2022-12-23T10:05:16.622Z,98737.38
2022-12-23T10:08:32.740Z,98733.09
2022-12-23T10:11:28.165Z,98726.25
2022-12-23T10:14:09.876Z,98729.69
2022-12-23T10:16:42.902Z,98728.31
2022-12-23T10:19:20.384Z,98730.13
2022-12-23T10:22:06.279Z,98722.75
2022-12-23T10:24:42.446Z,98732.28
2022-12-23T10:27:20.919Z,98725.22
2022-12-23T10:29:47.467Z,98726.25
2022-12-23T10:32:34.528Z,98733.75
2022-12-23T10:35:15.754Z,98735.75
2022-12-23T10:37:57.556Z,98731.56
2022-12-23T10:40:33.087Z,98739.00
2022-12-23T10:43:45.702Z,98728.06
2022-12-23T10:46:29.226Z,98721.00
2022-12-23T10:49:15.348Z,98722.34
2022-12-23T10:51:52.649Z,98725.44
2022-12-23T10:54:40.518Z,98738.28
2022-12-23T10:57:08.605Z,98725.13
2022-12-23T10:59:36.782Z,98723.44
2022-12-23T11:02:12.730Z,98720.13
2022-12-23T11:04:44.992Z,98736.16
2022-12-23T11:07:44.021Z,98731.25
2022-12-23T11:10:20.740Z,98737.50
2022-12-23T11:12:53.023Z,98739.91
2022-12-23T11:15:38.354Z,98734.31
2022-12-23T11:18:19.505Z,98749.13
2022-12-23T11:21:02.795Z,98741.03
2022-12-23T11:23:35.993Z,98747.97
2022-12-23T11:26:07.202Z,98764.09
2022-12-23T11:28:37.631Z,98754.41
2022-12-23T11:31:09.774Z,98758.75
2022-12-23T11:33:40.028Z,98745.34
2022-12-23T11:36:12.495Z,98753.09
2022-12-23T11:39:06.858Z,98758.66
2022-12-23T11:41:53.105Z,98757.28
2022-12-23T11:44:34.102Z,98751.59
2022-12-23T11:47:25.344Z,98754.66
2022-12-23T11:50:00.203Z,98743.84
2022-12-23T11:52:32.584Z,98743.50
2022-12-23T11:55:04.914Z,98746.44
2022-12-23T11:57:43.196Z,98756.03
2022-12-23T12:00:26.349Z,98755.56
2022-12-23T12:02:57.014Z,98752.50
2022-12-23T12:05:35.697Z,98759.44
2022-12-23T12:08:06.903Z,98760.47
2022-12-23T12:10:36.460Z,98743.53
2022-12-23T12:13:06.629Z,98752.00
2022-12-23T12:15:44.663Z,98746.00
2022-12-23T12:18:17.389Z,98743.81
2022-12-23T12:20:53.185Z,98743.00
2022-12-23T12:23:28.785Z,98739.13
2022-12-23T12:26:00.727Z,98746.66
2022-12-23T12:28:38.768Z,98734.06
2022-12-23T12:31:28.099Z,98735.09
2022-12-23T12:33:57.973Z,98733.59
2022-12-23T12:36:34.886Z,98730.97
2022-12-23T12:39:01.491Z,98737.06
2022-12-23T12:41:35.751Z,98738.69
2022-12-23T12:44:38.697Z,98742.44
2022-12-23T12:47:52.256Z,98750.09
2022-12-23T12:50:20.335Z,98756.22
2022-12-23T12:52:46.965Z,98759.63
2022-12-23T12:55:16.389Z,98753.66
2022-12-23T12:57:43.173Z,98765.75
2022-12-23T13:00:18.959Z,98760.56
2022-12-23T13:03:15.606Z,98766.03
2022-12-23T13:05:51.696Z,98749.91
2022-12-23T13:08:23.321Z,98747.72
2022-12-23T13:11:24.911Z,98764.63
2022-12-23T13:14:03.770Z,98772.34
2022-12-23T13:16:45.671Z,98769.25
2022-12-23T13:19:27.202Z,98766.63
2022-12-23T13:22:08.960Z,98765.56
2022-12-23T13:24:53.972Z,98768.41
2022-12-23T13:27:33.959Z,98768.41
2022-12-23T13:30:13.187Z,98771.56
2022-12-23T13:32:51.687Z,98765.53
2022-12-23T13:35:42.463Z,98779.31
2022-12-23T13:38:36.625Z,98796.03
2022-12-23T13:41:52.460Z,98787.13
2022-12-23T13:44:20.596Z,98791.50
2022-12-23T13:47:12.202Z,98793.53
2022-12-23T13:49:41.502Z,98797.84
2022-12-23T13:52:48.815Z,98795.25
2022-12-23T13:55:47.841Z,98790.59
2022-12-23T13:58:18.282Z,98797.22
2022-12-23T14:00:44.982Z,98792.31
2022-12-23T14:03:14.124Z,98794.94
2022-12-23T14:05:51.654Z,98789.25
2022-12-23T14:08:31.542Z,98788.09
2022-12-23T14:11:19.989Z,98795.03
2022-12-23T14:13:49.679Z,98790.59
2022-12-23T14:16:22.002Z,98789.72
2022-12-23T14:19:02.099Z,98791.06
2022-12-23T14:21:40.341Z,98801.06
2022-12-23T14:24:47.577Z,98796.75
2022-12-23T14:27:42.632Z,98796.81
2022-12-23T14:30:32.928Z,98789.19
2022-12-23T14:33:02.560Z,98786.41
2022-12-23T14:35:37.000Z,98778.38
2022-12-23T14:38:14.407Z,98770.81
2022-12-23T14:40:50.449Z,98773.97
2022-12-23T14:43:23.335Z,98776.59
2022-12-23T14:45:57.604Z,98781.63
2022-12-23T14:48:37.107Z,98792.78
2022-12-23T14:51:09.829Z,98791.56
2022-12-23T14:53:57.264Z,98791.69
2022-12-23T14:56:35.855Z,98792.06
2022-12-23T14:59:23.845Z,98791.66
2022-12-23T15:02:00.433Z,98789.28
2022-12-23T15:04:47.946Z,98797.09
2022-12-23T15:07:26.264Z,98783.06
2022-12-23T15:10:00.668Z,98778.00
2022-12-23T15:12:34.034Z,98779.50
2022-12-23T15:15:04.806Z,98792.13
2022-12-23T15:17:36.640Z,98786.41
2022-12-23T15:20:23.455Z,98794.81
2022-12-23T15:22:50.843Z,98793.41
2022-12-23T15:25:26.657Z,98785.66
2022-12-23T15:28:01.188Z,98780.53
2022-12-23T15:30:35.328Z,98790.84
2022-12-23T15:33:15.997Z,98788.91
2022-12-23T15:35:52.888Z,98777.78
2022-12-23T15:38:21.300Z,98784.72
2022-12-23T15:41:00.530Z,98779.25
2022-12-23T15:43:27.399Z,98774.84
2022-12-23T15:45:54.297Z,98777.38
2022-12-23T15:48:31.763Z,98775.03
2022-12-23T15:51:57.775Z,98780.56
2022-12-23T15:54:27.005Z,98782.88
2022-12-23T15:56:56.151Z,98783.00
2022-12-23T15:59:27.840Z,98777.78
2022-12-23T16:01:55.240Z,98768.09
2022-12-23T16:04:29.435Z,98769.22
2022-12-23T16:06:56.299Z,98762.16
2022-12-23T16:09:30.755Z,98759.91
2022-12-23T16:11:58.821Z,98760.38
2022-12-23T16:14:32.451Z,98749.69
2022-12-23T16:17:00.280Z,98748.31
2022-12-23T16:19:51.798Z,98742.66
2022-12-23T16:22:30.028Z,98733.53
2022-12-23T16:24:56.512Z,98733.50
2022-12-23T16:27:46.458Z,98739.78
2022-12-23T16:30:24.134Z,98752.06
2022-12-23T16:32:57.398Z,98764.78
2022-12-23T16:35:30.640Z,98767.88
2022-12-23T16:38:08.762Z,98774.34
2022-12-23T16:40:35.426Z,98769.94
2022-12-23T16:43:02.067Z,98791.75
2022-12-23T16:45:32.060Z,98774.81
2022-12-23T16:47:59.517Z,98777.16
2022-12-23T16:50:27.054Z,98773.47
2022-12-23T16:52:53.651Z,98770.97
2022-12-23T16:55:20.748Z,98770.38
2022-12-23T16:57:47.355Z,98769.13
2022-12-23T17:00:17.470Z,98774.84
2022-12-23T17:02:45.216Z,98767.50
2022-12-23T17:05:17.276Z,98771.59
2022-12-23T17:07:45.634Z,98773.56
2022-12-23T17:10:14.560Z,98783.34
2022-12-23T17:12:41.685Z,98785.38
2022-12-23T17:15:12.666Z,98778.75
2022-12-23T17:17:39.273Z,98778.31
2022-12-23T17:20:09.333Z,98768.44
2022-12-23T17:22:36.263Z,98764.00
2022-12-23T17:25:03.161Z,98757.03
2022-12-23T17:27:29.808Z,98778.75
2022-12-23T17:29:56.356Z,98773.25
2022-12-23T17:32:24.424Z,98773.00
2022-12-23T17:34:51.246Z,98784.41
2022-12-23T17:37:20.087Z,98765.81
2022-12-23T17:39:47.791Z,98764.59
2022-12-23T17:42:25.585Z,98773.13
2022-12-23T17:44:52.534Z,98767.34
2022-12-23T17:47:22.309Z,98762.41
2022-12-23T18:33:08.739Z,98743.84
2022-12-23T18:35:39.638Z,98739.97
2022-12-23T18:38:06.237Z,98738.84
2022-12-23T18:40:33.310Z,98737.63
2022-12-23T18:43:00.322Z,98731.50
2022-12-23T18:45:38.785Z,98738.22
2022-12-23T18:48:07.288Z,98738.41
2022-12-23T18:50:36.773Z,98730.56
2022-12-23T18:53:04.181Z,98729.22
2022-12-23T18:55:30.896Z,98725.13
2022-12-23T18:57:59.450Z,98725.56
2022-12-23T19:00:33.578Z,98722.75
2022-12-23T19:03:00.239Z,98732.19
2022-12-23T19:05:29.363Z,98722.59
2022-12-23T19:07:57.702Z,98720.66
2022-12-23T19:10:33.356Z,98726.69
2022-12-23T19:13:00.803Z,98736.00
2022-12-23T19:15:27.460Z,98732.03
2022-12-23T19:17:54.129Z,98740.44
2022-12-23T19:20:20.979Z,98727.56
2022-12-23T19:22:48.817Z,98735.34
2022-12-23T19:25:18.220Z,98735.13
2022-12-23T19:27:46.080Z,98740.59
2022-12-23T19:30:15.240Z,98740.59
2022-12-23T19:32:41.807Z,98752.41
2022-12-23T19:35:11.934Z,98751.94
2022-12-23T19:37:38.513Z,98755.00
2022-12-23T19:40:06.505Z,98749.66
2022-12-23T19:42:33.967Z,98744.19
2022-12-23T19:45:00.892Z,98750.00
2022-12-23T19:47:27.485Z,98741.25
2022-12-23T19:49:53.997Z,98740.66
2022-12-23T19:52:20.558Z,98729.88
2022-12-23T19:54:47.073Z,98722.13
2022-12-23T19:57:13.643Z,98715.53
2022-12-23T19:59:40.177Z,98707.34
2022-12-23T20:02:06.815Z,98695.97
2022-12-23T20:04:33.430Z,98682.75
2022-12-23T20:06:59.948Z,98689.91
2022-12-23T20:09:26.538Z,98674.53
2022-12-23T20:11:53.105Z,98671.50
2022-12-23T20:14:21.612Z,98670.56
2022-12-23T20:16:48.604Z,98669.56
2022-12-23T20:19:15.835Z,98663.56
2022-12-23T20:21:42.817Z,98650.44
2022-12-23T20:24:09.480Z,98645.16
2022-12-23T20:26:36.115Z,98640.28
2022-12-23T20:29:03.249Z,98639.69
2022-12-23T20:31:31.764Z,98636.19
2022-12-23T20:34:00.343Z,98637.06
2022-12-23T20:36:30.009Z,98635.72
2022-12-23T20:38:57.370Z,98629.22
2022-12-23T20:41:26.296Z,98641.56
2022-12-23T20:44:31.617Z,98643.75
2022-12-23T20:46:40.162Z,98656.28
2022-12-23T20:49:06.849Z,98663.91
2022-12-23T20:51:33.362Z,98649.69
2022-12-23T20:54:00.970Z,98646.34
2022-12-23T20:56:29.366Z,98651.59
2022-12-23T20:59:00.193Z,98637.06
2022-12-23T21:01:30.934Z,98649.13
2022-12-23T21:03:59.441Z,98651.59
2022-12-23T21:06:27.119Z,98656.34
2022-12-23T21:08:57.074Z,98633.97
2022-12-23T21:11:23.772Z,98630.19
2022-12-23T21:13:50.659Z,98632.00
2022-12-23T21:16:17.500Z,98626.84
2022-12-23T21:18:46.761Z,98630.63
2022-12-23T21:21:13.308Z,98630.88
2022-12-23T21:23:41.844Z,98626.06
2022-12-23T21:26:14.608Z,98607.34
2022-12-23T21:28:43.102Z,98607.56
2022-12-23T21:31:10.610Z,98624.28
2022-12-23T21:33:39.448Z,98661.19
2022-12-23T21:36:07.478Z,98678.00
2022-12-23T21:38:36.696Z,98657.94
2022-12-23T21:41:06.365Z,98669.19
2022-12-23T21:43:33.216Z,98658.50
2022-12-23T21:46:05.545Z,98635.53
2022-12-23T21:48:34.217Z,98652.41
2022-12-23T21:51:21.752Z,98630.81
2022-12-23T21:53:50.688Z,98631.81
2022-12-23T21:56:19.908Z,98619.34
2022-12-23T21:58:47.115Z,98602.63
2022-12-23T22:01:19.131Z,98598.91
2022-12-23T22:03:48.436Z,98605.16
2022-12-23T22:06:21.470Z,98596.47
2022-12-23T22:08:51.735Z,98591.69
2022-12-23T22:11:21.648Z,98592.31
2022-12-23T22:13:48.199Z,98579.31
2022-12-23T22:16:17.430Z,98571.25
2022-12-23T22:18:44.317Z,98592.97
2022-12-23T22:21:14.860Z,98598.25
2022-12-23T22:23:41.571Z,98581.00
2022-12-23T22:26:10.558Z,98584.19
2022-12-23T22:28:39.679Z,98592.44
2022-12-23T22:31:29.936Z,98590.88
2022-12-23T22:33:56.985Z,98593.19
2022-12-23T22:36:23.627Z,98604.09
2022-12-23T22:38:55.757Z,98597.66
2022-12-23T22:41:23.337Z,98589.00
2022-12-23T22:43:50.028Z,98601.09
2022-12-23T22:46:18.397Z,98598.41
2022-12-23T22:48:45.389Z,98612.31
2022-12-23T22:51:15.727Z,98604.31
2022-12-23T22:53:42.606Z,98612.72
2022-12-23T22:56:11.782Z,98603.69
2022-12-23T22:58:38.775Z,98610.88
2022-12-23T23:01:06.005Z,98608.03
2022-12-23T23:03:33.281Z,98615.72
2022-12-23T23:06:03.359Z,98609.66
2022-12-23T23:08:30.872Z,98598.38
2022-12-23T23:10:59.922Z,98611.69
2022-12-23T23:13:29.285Z,98603.41
2022-12-23T23:15:56.371Z,98596.94
2022-12-23T23:18:23.569Z,98579.34
2022-12-23T23:20:50.721Z,98584.00
2022-12-23T23:23:17.554Z,98579.63
2022-12-23T23:25:44.225Z,98575.53
2022-12-23T23:28:11.787Z,98576.44
2022-12-23T23:30:39.497Z,98576.50
2022-12-23T23:33:07.764Z,98577.75
2022-12-23T23:35:35.123Z,98576.03
2022-12-23T23:38:01.734Z,98580.94
2022-12-23T23:40:28.431Z,98577.69
2022-12-23T23:42:54.934Z,98564.75
2022-12-23T23:45:21.516Z,98575.31
2022-12-23T23:47:48.161Z,98561.00
2022-12-23T23:50:15.290Z,98576.47
2022-12-23T23:52:41.853Z,98574.91
2022-12-23T23:55:08.934Z,98589.38
2022-12-23T23:57:35.476Z,98608.94
